Mc Clellan-Palomar Airport Carlsbad US
ICAO: KCRQ
IATA: CRQ
Category: Medium
Scheduled Services: No

Elevation: 331 ft
TransAlt. 18000 ft.

Airport Communications:
SOCAL APP/DEP:127.3
ATIS:120.15
CLNC DEL:134.85
CTAF:118.6
GND:121.8
SAN DIEGO RDO:115.3
TWR:118.6

KCRQ Zoom In..

If Map Doesn't Load, Click Here

Runways:

(A) RW 06 length 4897 ft width 150 ft
---- / hdg 65

(B) RW 24 length 4897 ft width 150 ft
ILS 108.70 / hdg 245

Location; KCRQ
Day. 23 / Time. 07.53 Zulu
* Altimeter: 29.88
* Temperature: 19° c. 66.2°f.
* Wind from: 000° Speed 00 kn.
Dewpoint: 18° c.
Visibility: 9 Statute Miles.
Clouds: Few 800 ft.

KCRQ 230753Z AUTO 00000KT 9SM FEW008 19/18 A2988 RMK AO2 SLP117 T01940178 402330178


Wind - Calm.

 
 
jpsmedia.com for Web Design worldairports.se 2018   terms of use